sensor_id;sensor_type;location;lat;lon;timestamp;pressure;altitude;pressure_sealevel;temperature;humidity
61109;BME280;46995;55.740;37.402;2023-07-20T00:04:14;98128.91;;;13.31;80.56
61109;BME280;46995;55.740;37.402;2023-07-20T00:07:10;98131.41;;;13.32;80.44
61109;BME280;46995;55.740;37.402;2023-07-20T00:10:20;98131.78;;;13.29;80.35
61109;BME280;46995;55.740;37.402;2023-07-20T00:16:58;98128.19;;;13.22;80.52
61109;BME280;46995;55.740;37.402;2023-07-20T00:20:21;98129.19;;;13.21;80.25
61109;BME280;46995;55.740;37.402;2023-07-20T00:22:48;98125.91;;;13.19;80.45
61109;BME280;46995;55.740;37.402;2023-07-20T00:29:12;98137.31;;;13.20;80.30
61109;BME280;46995;55.740;37.402;2023-07-20T00:32:30;98134.06;;;13.18;80.46
61109;BME280;46995;55.740;37.402;2023-07-20T00:35:38;98135.72;;;13.19;80.78
61109;BME280;46995;55.740;37.402;2023-07-20T00:38:51;98141.19;;;13.17;80.59
61109;BME280;46995;55.740;37.402;2023-07-20T00:42:01;98137.06;;;13.14;80.68
61109;BME280;46995;55.740;37.402;2023-07-20T00:45:37;98137.56;;;13.10;80.71
61109;BME280;46995;55.740;37.402;2023-07-20T00:48:22;98139.59;;;13.08;80.62
61109;BME280;46995;55.740;37.402;2023-07-20T00:51:34;98147.91;;;13.05;80.69
61109;BME280;46995;55.740;37.402;2023-07-20T00:54:57;98140.31;;;13.02;80.92
61109;BME280;46995;55.740;37.402;2023-07-20T00:58:05;98150.09;;;13.01;81.10
61109;BME280;46995;55.740;37.402;2023-07-20T01:01:06;98140.88;;;12.97;80.91
61109;BME280;46995;55.740;37.402;2023-07-20T01:04:00;98149.00;;;12.96;80.98
61109;BME280;46995;55.740;37.402;2023-07-20T01:07:16;98147.16;;;12.96;81.25
61109;BME280;46995;55.740;37.402;2023-07-20T01:13:50;98142.69;;;12.97;81.42
61109;BME280;46995;55.740;37.402;2023-07-20T01:17:14;98142.69;;;12.97;81.35
61109;BME280;46995;55.740;37.402;2023-07-20T01:19:43;98143.69;;;12.96;81.45
61109;BME280;46995;55.740;37.402;2023-07-20T01:22:11;98142.22;;;12.93;81.33
61109;BME280;46995;55.740;37.402;2023-07-20T01:24:56;98149.72;;;12.90;81.14
61109;BME280;46995;55.740;37.402;2023-07-20T01:31:28;98148.78;;;12.83;81.46
61109;BME280;46995;55.740;37.402;2023-07-20T01:34:27;98153.44;;;12.81;81.52
61109;BME280;46995;55.740;37.402;2023-07-20T01:37:09;98143.84;;;12.80;81.78
61109;BME280;46995;55.740;37.402;2023-07-20T01:39:53;98142.84;;;12.81;81.81
61109;BME280;46995;55.740;37.402;2023-07-20T01:42:59;98149.16;;;12.80;81.86
61109;BME280;46995;55.740;37.402;2023-07-20T01:46:02;98141.56;;;12.77;81.43
61109;BME280;46995;55.740;37.402;2023-07-20T01:48:56;98145.56;;;12.72;81.72
61109;BME280;46995;55.740;37.402;2023-07-20T01:52:01;98145.56;;;12.72;81.72
61109;BME280;46995;55.740;37.402;2023-07-20T01:54:42;98144.72;;;12.72;82.10
61109;BME280;46995;55.740;37.402;2023-07-20T01:57:45;98149.84;;;12.73;82.24
61109;BME280;46995;55.740;37.402;2023-07-20T02:00:57;98142.75;;;12.74;82.11
61109;BME280;46995;55.740;37.402;2023-07-20T02:03:40;98150.84;;;12.72;81.97
61109;BME280;46995;55.740;37.402;2023-07-20T02:06:43;98155.16;;;12.73;82.10
61109;BME280;46995;55.740;37.402;2023-07-20T02:09:40;98147.22;;;12.73;82.17
61109;BME280;46995;55.740;37.402;2023-07-20T02:12:19;98151.34;;;12.76;82.15
61109;BME280;46995;55.740;37.402;2023-07-20T02:15:25;98149.53;;;12.77;82.15
61109;BME280;46995;55.740;37.402;2023-07-20T02:18:11;98153.78;;;12.78;82.24
61109;BME280;46995;55.740;37.402;2023-07-20T02:20:54;98161.09;;;12.76;82.11
61109;BME280;46995;55.740;37.402;2023-07-20T02:23:55;98148.69;;;12.76;82.15
61109;BME280;46995;55.740;37.402;2023-07-20T02:26:44;98149.69;;;12.75;81.95
61109;BME280;46995;55.740;37.402;2023-07-20T02:29:19;98151.13;;;12.78;82.14
61109;BME280;46995;55.740;37.402;2023-07-20T02:32:06;98151.78;;;12.80;81.98
61109;BME280;46995;55.740;37.402;2023-07-20T02:34:55;98153.44;;;12.81;81.56
61109;BME280;46995;55.740;37.402;2023-07-20T02:41:26;98153.06;;;12.84;81.51
61109;BME280;46995;55.740;37.402;2023-07-20T02:44:02;98160.69;;;12.87;81.95
61109;BME280;46995;55.740;37.402;2023-07-20T02:46:34;98154.84;;;12.91;81.94
61109;BME280;46995;55.740;37.402;2023-07-20T02:49:12;98167.16;;;12.99;81.72
61109;BME280;46995;55.740;37.402;2023-07-20T02:52:14;98169.09;;;13.05;81.77
61109;BME280;46995;55.740;37.402;2023-07-20T02:54:46;98172.72;;;13.12;81.65
61109;BME280;46995;55.740;37.402;2023-07-20T02:57:23;98174.00;;;13.16;81.29
61109;BME280;46995;55.740;37.402;2023-07-20T02:59:56;98174.28;;;13.21;81.22
61109;BME280;46995;55.740;37.402;2023-07-20T03:02:44;98178.84;;;13.27;81.12
61109;BME280;46995;55.740;37.402;2023-07-20T03:05:28;98169.53;;;13.31;81.15
61109;BME280;46995;55.740;37.402;2023-07-20T03:08:22;98180.06;;;13.39;80.91
61109;BME280;46995;55.740;37.402;2023-07-20T03:14:04;98182.69;;;13.54;80.60
61109;BME280;46995;55.740;37.402;2023-07-20T03:16:39;98172.19;;;13.61;80.70
61109;BME280;46995;55.740;37.402;2023-07-20T03:19:21;98177.38;;;13.69;80.63
61109;BME280;46995;55.740;37.402;2023-07-20T03:21:49;98182.22;;;13.80;80.37
61109;BME280;46995;55.740;37.402;2023-07-20T03:24:40;98182.75;;;13.90;80.25
61109;BME280;46995;55.740;37.402;2023-07-20T03:27:18;98181.63;;;13.99;79.96
61109;BME280;46995;55.740;37.402;2023-07-20T03:29:59;98182.53;;;14.06;79.77
61109;BME280;46995;55.740;37.402;2023-07-20T03:32:34;98182.03;;;14.17;79.79
61109;BME280;46995;55.740;37.402;2023-07-20T03:35:21;98192.16;;;14.28;79.54
61109;BME280;46995;55.740;37.402;2023-07-20T03:42:03;98191.88;;;14.80;78.69
61109;BME280;46995;55.740;37.402;2023-07-20T03:44:47;98180.63;;;15.06;78.26
61109;BME280;46995;55.740;37.402;2023-07-20T03:47:27;98185.69;;;15.29;77.93
61109;BME280;46995;55.740;37.402;2023-07-20T03:50:11;98181.06;;;15.44;77.61
61109;BME280;46995;55.740;37.402;2023-07-20T03:52:45;98186.44;;;15.51;77.15
61109;BME280;46995;55.740;37.402;2023-07-20T03:55:27;98194.06;;;15.54;76.94
61109;BME280;46995;55.740;37.402;2023-07-20T03:58:27;98190.78;;;15.52;76.56
61109;BME280;46995;55.740;37.402;2023-07-20T04:04:25;98196.47;;;15.49;76.66
61109;BME280;46995;55.740;37.402;2023-07-20T04:07:12;98202.16;;;15.46;76.87
61109;BME280;46995;55.740;37.402;2023-07-20T04:13:07;98202.16;;;15.46;76.87
61109;BME280;46995;55.740;37.402;2023-07-20T04:15:48;98195.19;;;15.45;76.75
61109;BME280;46995;55.740;37.402;2023-07-20T04:18:19;98202.34;;;15.44;76.79
61109;BME280;46995;55.740;37.402;2023-07-20T04:20:51;98202.34;;;15.44;76.70
61109;BME280;46995;55.740;37.402;2023-07-20T04:23:31;98211.63;;;15.48;77.42
61109;BME280;46995;55.740;37.402;2023-07-20T04:26:07;98209.78;;;15.49;77.08
61109;BME280;46995;55.740;37.402;2023-07-20T04:28:33;98212.06;;;15.52;77.09
61109;BME280;46995;55.740;37.402;2023-07-20T04:31:16;98208.00;;;15.56;77.22
61109;BME280;46995;55.740;37.402;2023-07-20T04:34:04;98209.22;;;15.60;76.85
61109;BME280;46995;55.740;37.402;2023-07-20T04:37:15;98208.22;;;15.61;76.85
61109;BME280;46995;55.740;37.402;2023-07-20T04:39:52;98215.00;;;15.63;76.78
61109;BME280;46995;55.740;37.402;2023-07-20T04:46:13;98204.13;;;15.58;76.52
61109;BME280;46995;55.740;37.402;2023-07-20T04:48:54;98203.53;;;15.63;76.24
61109;BME280;46995;55.740;37.402;2023-07-20T04:51:45;98208.06;;;15.69;76.34
61109;BME280;46995;55.740;37.402;2023-07-20T04:54:41;98211.97;;;15.73;76.04
61109;BME280;46995;55.740;37.402;2023-07-20T04:57:31;98214.06;;;15.78;76.48
61109;BME280;46995;55.740;37.402;2023-07-20T05:00:25;98209.97;;;15.82;76.07
61109;BME280;46995;55.740;37.402;2023-07-20T05:03:08;98211.03;;;15.87;76.16
61109;BME280;46995;55.740;37.402;2023-07-20T05:06:00;98214.31;;;15.89;75.04
61109;BME280;46995;55.740;37.402;2023-07-20T05:08:40;98220.06;;;15.93;75.64
61109;BME280;46995;55.740;37.402;2023-07-20T05:11:23;98216.41;;;16.00;75.83
61109;BME280;46995;55.740;37.402;2023-07-20T05:14:15;98218.06;;;16.01;75.18
61109;BME280;46995;55.740;37.402;2023-07-20T05:16:55;98219.31;;;16.05;75.16
61109;BME280;46995;55.740;37.402;2023-07-20T05:23:18;98212.75;;;16.08;73.00
61109;BME280;46995;55.740;37.402;2023-07-20T05:25:58;98214.63;;;16.14;74.36
61109;BME280;46995;55.740;37.402;2023-07-20T05:28:40;98220.16;;;16.19;74.62
61109;BME280;46995;55.740;37.402;2023-07-20T05:31:18;98218.13;;;16.28;73.74
61109;BME280;46995;55.740;37.402;2023-07-20T05:33:59;98209.97;;;16.36;73.76
61109;BME280;46995;55.740;37.402;2023-07-20T05:36:39;98224.75;;;16.45;73.21
61109;BME280;46995;55.740;37.402;2023-07-20T05:39:28;98210.44;;;16.52;73.30
61109;BME280;46995;55.740;37.402;2023-07-20T05:42:30;98216.41;;;16.61;71.80
61109;BME280;46995;55.740;37.402;2023-07-20T05:45:54;98227.69;;;16.70;73.38
61109;BME280;46995;55.740;37.402;2023-07-20T05:49:08;98217.03;;;16.76;73.15
61109;BME280;46995;55.740;37.402;2023-07-20T05:52:41;98215.59;;;16.80;71.60
61109;BME280;46995;55.740;37.402;2023-07-20T05:55:40;98210.91;;;16.89;72.62
61109;BME280;46995;55.740;37.402;2023-07-20T06:19:08;98219.69;;;17.49;70.67
61109;BME280;46995;55.740;37.402;2023-07-20T06:22:33;98223.19;;;17.56;70.69
61109;BME280;46995;55.740;37.402;2023-07-20T06:25:39;98218.47;;;17.64;70.80
61109;BME280;46995;55.740;37.402;2023-07-20T06:28:37;98225.63;;;17.70;66.74
61109;BME280;46995;55.740;37.402;2023-07-20T06:39:38;98220.84;;;17.99;65.79
61109;BME280;46995;55.740;37.402;2023-07-20T06:41:47;98221.84;;;18.04;66.78
61109;BME280;46995;55.740;37.402;2023-07-20T06:57:30;98214.47;;;18.38;65.23
61109;BME280;46995;55.740;37.402;2023-07-20T07:01:14;98215.06;;;18.46;62.67
61109;BME280;46995;55.740;37.402;2023-07-20T07:03:56;98222.00;;;18.60;64.62
61109;BME280;46995;55.740;37.402;2023-07-20T07:11:06;98214.56;;;18.94;62.97
61109;BME280;46995;55.740;37.402;2023-07-20T07:14:26;98209.59;;;19.22;61.92
61109;BME280;46995;55.740;37.402;2023-07-20T07:17:16;98225.09;;;19.38;63.35
61109;BME280;46995;55.740;37.402;2023-07-20T07:27:36;98226.28;;;19.42;62.38
61109;BME280;46995;55.740;37.402;2023-07-20T07:31:09;98229.75;;;19.50;61.44
61109;BME280;46995;55.740;37.402;2023-07-20T07:34:19;98235.66;;;19.58;61.35
61109;BME280;46995;55.740;37.402;2023-07-20T07:37:25;98232.28;;;19.44;60.20
61109;BME280;46995;55.740;37.402;2023-07-20T07:40:27;98232.44;;;19.50;60.88
61109;BME280;46995;55.740;37.402;2023-07-20T07:43:38;98239.44;;;19.69;61.67
61109;BME280;46995;55.740;37.402;2023-07-20T07:46:28;98233.38;;;19.80;57.63
61109;BME280;46995;55.740;37.402;2023-07-20T07:49:34;98225.63;;;19.90;59.41
61109;BME280;46995;55.740;37.402;2023-07-20T07:52:32;98232.78;;;19.96;60.46
61109;BME280;46995;55.740;37.402;2023-07-20T08:00:46;98222.34;;;20.06;59.36
61109;BME280;46995;55.740;37.402;2023-07-20T08:12:11;98240.81;;;20.14;57.27
61109;BME280;46995;55.740;37.402;2023-07-20T08:15:38;98237.06;;;20.15;58.81
61109;BME280;46995;55.740;37.402;2023-07-20T08:18:59;98238.84;;;20.21;58.42
61109;BME280;46995;55.740;37.402;2023-07-20T08:21:39;98251.53;;;20.14;58.60
61109;BME280;46995;55.740;37.402;2023-07-20T08:27:49;98254.06;;;19.73;59.94
61109;BME280;46995;55.740;37.402;2023-07-20T08:30:52;98252.13;;;19.62;59.21
61109;BME280;46995;55.740;37.402;2023-07-20T08:33:54;98252.28;;;19.85;56.29
61109;BME280;46995;55.740;37.402;2023-07-20T08:41:02;98252.50;;;20.20;58.63
61109;BME280;46995;55.740;37.402;2023-07-20T08:46:39;98246.19;;;20.14;58.52
61109;BME280;46995;55.740;37.402;2023-07-20T08:51:48;98239.47;;;20.23;60.02
61109;BME280;46995;55.740;37.402;2023-07-20T08:54:13;98240.44;;;20.29;59.22
61109;BME280;46995;55.740;37.402;2023-07-20T08:56:45;98232.22;;;20.42;59.24
61109;BME280;46995;55.740;37.402;2023-07-20T08:59:11;98240.25;;;20.60;59.06
61109;BME280;46995;55.740;37.402;2023-07-20T09:01:39;98239.34;;;20.78;56.87
61109;BME280;46995;55.740;37.402;2023-07-20T09:04:11;98230.34;;;21.02;56.96
61109;BME280;46995;55.740;37.402;2023-07-20T09:06:37;98237.06;;;21.23;57.49
61109;BME280;46995;55.740;37.402;2023-07-20T09:09:03;98243.13;;;21.42;56.65
61109;BME280;46995;55.740;37.402;2023-07-20T09:11:28;98238.69;;;21.47;54.54
61109;BME280;46995;55.740;37.402;2023-07-20T09:14:07;98243.13;;;21.53;56.32
61109;BME280;46995;55.740;37.402;2023-07-20T09:16:46;98251.19;;;21.53;53.63
61109;BME280;46995;55.740;37.402;2023-07-20T09:19:14;98243.84;;;21.49;56.17
61109;BME280;46995;55.740;37.402;2023-07-20T09:21:40;98238.25;;;21.50;55.74
61109;BME280;46995;55.740;37.402;2023-07-20T09:24:05;98238.34;;;21.55;55.70
61109;BME280;46995;55.740;37.402;2023-07-20T09:26:32;98234.47;;;21.63;52.07
61109;BME280;46995;55.740;37.402;2023-07-20T09:29:05;98242.22;;;21.60;55.33
61109;BME280;46995;55.740;37.402;2023-07-20T09:31:33;98239.53;;;21.60;55.00
61109;BME280;46995;55.740;37.402;2023-07-20T09:33:58;98239.53;;;21.60;55.12
61109;BME280;46995;55.740;37.402;2023-07-20T09:36:31;98246.97;;;21.58;54.94
61109;BME280;46995;55.740;37.402;2023-07-20T09:38:58;98266.72;;;21.40;56.68
61109;BME280;46995;55.740;37.402;2023-07-20T09:41:24;98273.28;;;21.02;58.52
61109;BME280;46995;55.740;37.402;2023-07-20T09:43:51;98264.41;;;20.06;60.73
61109;BME280;46995;55.740;37.402;2023-07-20T09:46:17;98279.63;;;19.19;63.55
61109;BME280;46995;55.740;37.402;2023-07-20T09:48:51;98292.97;;;18.63;65.73
61109;BME280;46995;55.740;37.402;2023-07-20T09:51:18;98298.03;;;18.20;67.98
61109;BME280;46995;55.740;37.402;2023-07-20T09:53:46;98295.47;;;17.81;68.99
61109;BME280;46995;55.740;37.402;2023-07-20T09:56:13;98286.84;;;17.39;68.93
61109;BME280;46995;55.740;37.402;2023-07-20T09:58:42;98273.28;;;16.94;71.94
61109;BME280;46995;55.740;37.402;2023-07-20T10:01:08;98266.41;;;16.52;71.47
61109;BME280;46995;55.740;37.402;2023-07-20T10:03:34;98271.91;;;16.38;71.43
61109;BME280;46995;55.740;37.402;2023-07-20T10:06:04;98270.69;;;16.47;72.06
61109;BME280;46995;55.740;37.402;2023-07-20T10:08:31;98269.09;;;16.59;72.00
61109;BME280;46995;55.740;37.402;2023-07-20T10:10:57;98270.13;;;16.65;72.29
61109;BME280;46995;55.740;37.402;2023-07-20T10:13:26;98279.41;;;16.69;70.29
61109;BME280;46995;55.740;37.402;2023-07-20T10:16:02;98274.69;;;16.77;71.61
61109;BME280;46995;55.740;37.402;2023-07-20T10:18:30;98281.06;;;16.89;71.84
61109;BME280;46995;55.740;37.402;2023-07-20T10:20:56;98287.03;;;16.98;71.36
61109;BME280;46995;55.740;37.402;2023-07-20T10:23:25;98280.69;;;17.06;71.62
61109;BME280;46995;55.740;37.402;2023-07-20T10:25:51;98275.78;;;17.16;71.46
61109;BME280;46995;55.740;37.402;2023-07-20T10:28:17;98273.72;;;17.31;71.90
61109;BME280;46995;55.740;37.402;2023-07-20T10:30:43;98270.00;;;17.45;71.84
61109;BME280;46995;55.740;37.402;2023-07-20T10:33:09;98265.91;;;17.56;72.90
61109;BME280;46995;55.740;37.402;2023-07-20T10:35:51;98265.06;;;17.55;73.53
61109;BME280;46995;55.740;37.402;2023-07-20T10:38:17;98256.88;;;17.50;72.35
61109;BME280;46995;55.740;37.402;2023-07-20T10:40:43;98254.00;;;17.52;72.50
61109;BME280;46995;55.740;37.402;2023-07-20T10:43:19;98253.59;;;17.61;72.29
61109;BME280;46995;55.740;37.402;2023-07-20T10:45:49;98256.84;;;17.76;74.37
61109;BME280;46995;55.740;37.402;2023-07-20T10:48:15;98260.72;;;17.94;72.80
61109;BME280;46995;55.740;37.402;2023-07-20T10:50:41;98257.34;;;18.11;73.30
61109;BME280;46995;55.740;37.402;2023-07-20T10:53:12;98263.06;;;18.21;72.83
61109;BME280;46995;55.740;37.402;2023-07-20T10:55:41;98280.56;;;18.24;72.05
61109;BME280;46995;55.740;37.402;2023-07-20T10:58:14;98316.34;;;18.16;71.38
61109;BME280;46995;55.740;37.402;2023-07-20T11:03:35;98330.00;;;17.62;74.59
61109;BME280;46995;55.740;37.402;2023-07-20T11:08:45;98332.53;;;16.36;78.17
61109;BME280;46995;55.740;37.402;2023-07-20T11:14:04;98328.53;;;16.53;79.10
61109;BME280;46995;55.740;37.402;2023-07-20T11:16:52;98317.56;;;16.82;80.57
61109;BME280;46995;55.740;37.402;2023-07-20T11:19:18;98317.84;;;17.14;80.38
61109;BME280;46995;55.740;37.402;2023-07-20T11:21:49;98302.03;;;17.25;81.31
61109;BME280;46995;55.740;37.402;2023-07-20T11:24:15;98307.19;;;17.27;79.54
61109;BME280;46995;55.740;37.402;2023-07-20T11:26:42;98297.50;;;17.32;79.09
61109;BME280;46995;55.740;37.402;2023-07-20T11:29:08;98295.47;;;17.41;79.52
61109;BME280;46995;55.740;37.402;2023-07-20T11:31:40;98291.38;;;17.58;78.46
61109;BME280;46995;55.740;37.402;2023-07-20T11:34:31;98290.53;;;17.77;81.21
61109;BME280;46995;55.740;37.402;2023-07-20T11:36:55;98282.03;;;18.07;82.49
61109;BME280;46995;55.740;37.402;2023-07-20T11:39:21;98284.63;;;18.33;81.52
61109;BME280;46995;55.740;37.402;2023-07-20T11:41:51;98316.66;;;18.46;80.30
61109;BME280;46995;55.740;37.402;2023-07-20T11:44:17;98326.19;;;18.23;77.75
61109;BME280;46995;55.740;37.402;2023-07-20T11:46:43;98331.59;;;17.96;77.99
61109;BME280;46995;55.740;37.402;2023-07-20T11:49:10;98319.09;;;17.70;76.94
61109;BME280;46995;55.740;37.402;2023-07-20T11:51:36;98304.09;;;17.50;77.58
61109;BME280;46995;55.740;37.402;2023-07-20T11:54:03;98309.88;;;17.66;78.07
61109;BME280;46995;55.740;37.402;2023-07-20T11:56:30;98313.31;;;18.00;78.25
61109;BME280;46995;55.740;37.402;2023-07-20T11:58:59;98316.94;;;18.25;78.16
61109;BME280;46995;55.740;37.402;2023-07-20T12:01:27;98310.91;;;18.43;77.80
61109;BME280;46995;55.740;37.402;2023-07-20T12:04:00;98311.72;;;18.56;77.00
61109;BME280;46995;55.740;37.402;2023-07-20T12:06:27;98312.03;;;18.73;76.35
61109;BME280;46995;55.740;37.402;2023-07-20T12:08:56;98317.69;;;18.90;75.13
61109;BME280;46995;55.740;37.402;2023-07-20T12:13:58;98316.47;;;18.92;74.53
61109;BME280;46995;55.740;37.402;2023-07-20T12:16:26;98304.47;;;18.95;74.50
61109;BME280;46995;55.740;37.402;2023-07-20T12:18:58;98313.47;;;19.07;74.27
61109;BME280;46995;55.740;37.402;2023-07-20T12:21:24;98305.41;;;19.38;73.26
61109;BME280;46995;55.740;37.402;2023-07-20T12:23:51;98308.44;;;20.53;72.38
61109;BME280;46995;55.740;37.402;2023-07-20T12:26:16;98307.88;;;21.75;67.10
61109;BME280;46995;55.740;37.402;2023-07-20T12:28:42;98307.63;;;23.48;65.39
61109;BME280;46995;55.740;37.402;2023-07-20T12:31:08;98301.25;;;25.82;59.37
61109;BME280;46995;55.740;37.402;2023-07-20T12:33:35;98297.78;;;28.12;55.40
61109;BME280;46995;55.740;37.402;2023-07-20T12:36:00;98292.34;;;30.22;51.16
61109;BME280;46995;55.740;37.402;2023-07-20T12:38:26;98288.06;;;31.76;42.61
61109;BME280;46995;55.740;37.402;2023-07-20T12:40:53;98283.09;;;32.65;39.18
61109;BME280;46995;55.740;37.402;2023-07-20T12:43:20;98283.66;;;32.08;46.47
61109;BME280;46995;55.740;37.402;2023-07-20T12:45:45;98284.13;;;30.27;49.86
61109;BME280;46995;55.740;37.402;2023-07-20T12:48:12;98283.38;;;28.07;48.48
61109;BME280;46995;55.740;37.402;2023-07-20T12:50:38;98283.38;;;26.95;50.16
61109;BME280;46995;55.740;37.402;2023-07-20T12:53:03;98277.38;;;26.83;53.99
61109;BME280;46995;55.740;37.402;2023-07-20T12:55:29;98280.75;;;27.61;54.46
61109;BME280;46995;55.740;37.402;2023-07-20T12:57:55;98266.59;;;28.00;44.42
61109;BME280;46995;55.740;37.402;2023-07-20T13:00:20;98275.31;;;27.21;49.49
61109;BME280;46995;55.740;37.402;2023-07-20T13:02:50;98274.31;;;26.02;55.03
61109;BME280;46995;55.740;37.402;2023-07-20T13:05:16;98275.56;;;25.48;54.07
61109;BME280;46995;55.740;37.402;2023-07-20T13:07:42;98265.94;;;24.98;56.40
61109;BME280;46995;55.740;37.402;2023-07-20T13:10:08;98274.00;;;24.71;55.04
61109;BME280;46995;55.740;37.402;2023-07-20T13:12:34;98264.75;;;25.16;56.40
61109;BME280;46995;55.740;37.402;2023-07-20T13:15:04;98259.97;;;25.60;54.20
61109;BME280;46995;55.740;37.402;2023-07-20T13:17:36;98270.63;;;25.40;50.62
61109;BME280;46995;55.740;37.402;2023-07-20T13:20:03;98264.78;;;24.45;54.62
61109;BME280;46995;55.740;37.402;2023-07-20T13:22:36;98266.31;;;23.59;55.84
61109;BME280;46995;55.740;37.402;2023-07-20T13:25:02;98273.97;;;22.89;58.90
61109;BME280;46995;55.740;37.402;2023-07-20T13:27:28;98273.00;;;22.27;60.71
61109;BME280;46995;55.740;37.402;2023-07-20T13:29:55;98276.66;;;21.74;60.10
61109;BME280;46995;55.740;37.402;2023-07-20T13:32:21;98279.09;;;21.41;61.66
61109;BME280;46995;55.740;37.402;2023-07-20T13:34:47;98282.63;;;21.11;61.96
61109;BME280;46995;55.740;37.402;2023-07-20T13:37:13;98279.75;;;20.83;62.21
61109;BME280;46995;55.740;37.402;2023-07-20T13:39:39;98283.44;;;20.70;62.36
61109;BME280;46995;55.740;37.402;2023-07-20T13:42:05;98278.16;;;20.64;62.77
61109;BME280;46995;55.740;37.402;2023-07-20T13:44:31;98280.84;;;20.64;62.40
61109;BME280;46995;55.740;37.402;2023-07-20T13:46:57;98277.53;;;20.50;61.58
61109;BME280;46995;55.740;37.402;2023-07-20T13:49:23;98254.50;;;20.24;61.33
61109;BME280;46995;55.740;37.402;2023-07-20T13:51:49;98281.19;;;20.38;60.54
61109;BME280;46995;55.740;37.402;2023-07-20T13:54:15;98281.78;;;20.40;60.88
61109;BME280;46995;55.740;37.402;2023-07-20T13:56:40;98283.88;;;20.38;61.19
61109;BME280;46995;55.740;37.402;2023-07-20T13:59:06;98284.09;;;20.36;61.36
61109;BME280;46995;55.740;37.402;2023-07-20T14:01:33;98284.00;;;20.43;61.41
61109;BME280;46995;55.740;37.402;2023-07-20T14:03:59;98286.41;;;20.51;61.59
61109;BME280;46995;55.740;37.402;2023-07-20T14:06:25;98276.97;;;20.60;60.84
61109;BME280;46995;55.740;37.402;2023-07-20T14:08:51;98279.34;;;20.68;61.22
61109;BME280;46995;55.740;37.402;2023-07-20T14:11:18;98274.50;;;20.77;59.94
61109;BME280;46995;55.740;37.402;2023-07-20T14:13:44;98272.25;;;20.73;60.67
61109;BME280;46995;55.740;37.402;2023-07-20T14:16:09;98283.09;;;20.67;61.11
61109;BME280;46995;55.740;37.402;2023-07-20T14:18:35;98280.28;;;20.62;62.12
61109;BME280;46995;55.740;37.402;2023-07-20T14:21:01;98268.66;;;20.50;59.11
61109;BME280;46995;55.740;37.402;2023-07-20T14:23:28;98281.78;;;20.40;60.76
61109;BME280;46995;55.740;37.402;2023-07-20T14:25:54;98290.94;;;20.32;60.99
61109;BME280;46995;55.740;37.402;2023-07-20T14:28:21;98293.66;;;20.25;59.96
61109;BME280;46995;55.740;37.402;2023-07-20T14:30:47;98294.28;;;20.27;60.45
61109;BME280;46995;55.740;37.402;2023-07-20T14:33:12;98291.09;;;20.37;59.88
61109;BME280;46995;55.740;37.402;2023-07-20T14:35:38;98294.16;;;20.41;60.52
61109;BME280;46995;55.740;37.402;2023-07-20T14:38:03;98291.97;;;20.49;60.01
61109;BME280;46995;55.740;37.402;2023-07-20T14:40:31;98295.63;;;20.55;60.33
61109;BME280;46995;55.740;37.402;2023-07-20T14:42:56;98296.81;;;20.59;60.70
61109;BME280;46995;55.740;37.402;2023-07-20T14:45:22;98300.31;;;20.59;60.98
61109;BME280;46995;55.740;37.402;2023-07-20T14:47:48;98298.75;;;20.52;61.39
61109;BME280;46995;55.740;37.402;2023-07-20T14:50:20;98299.63;;;20.27;61.40
61109;BME280;46995;55.740;37.402;2023-07-20T14:52:46;98297.25;;;20.01;60.05
61109;BME280;46995;55.740;37.402;2023-07-20T14:55:12;98294.25;;;19.91;61.10
61109;BME280;46995;55.740;37.402;2023-07-20T14:57:37;98296.06;;;19.97;61.18
61109;BME280;46995;55.740;37.402;2023-07-20T15:00:03;98293.06;;;20.05;61.11
61109;BME280;46995;55.740;37.402;2023-07-20T15:02:33;98292.78;;;20.13;60.10
61109;BME280;46995;55.740;37.402;2023-07-20T15:05:00;98295.84;;;20.17;60.13
61109;BME280;46995;55.740;37.402;2023-07-20T15:07:28;98277.38;;;20.09;58.80
61109;BME280;46995;55.740;37.402;2023-07-20T15:09:54;98289.41;;;20.00;60.83
61109;BME280;46995;55.740;37.402;2023-07-20T15:12:20;98293.06;;;19.87;59.83
61109;BME280;46995;55.740;37.402;2023-07-20T15:14:49;98304.72;;;19.74;59.48
61109;BME280;46995;55.740;37.402;2023-07-20T15:17:27;98295.38;;;19.59;57.69
61109;BME280;46995;55.740;37.402;2023-07-20T15:19:52;98302.53;;;19.47;57.73
61109;BME280;46995;55.740;37.402;2023-07-20T15:22:18;98295.69;;;19.44;58.29
61109;BME280;46995;55.740;37.402;2023-07-20T15:24:46;98301.72;;;19.39;57.69
61109;BME280;46995;55.740;37.402;2023-07-20T15:27:12;98307.94;;;19.33;56.73
61109;BME280;46995;55.740;37.402;2023-07-20T15:29:37;98307.16;;;19.26;58.54
61109;BME280;46995;55.740;37.402;2023-07-20T15:32:03;98312.56;;;19.20;58.78
61109;BME280;46995;55.740;37.402;2023-07-20T15:34:29;98309.94;;;19.13;58.21
61109;BME280;46995;55.740;37.402;2023-07-20T15:36:55;98309.16;;;19.06;59.33
61109;BME280;46995;55.740;37.402;2023-07-20T15:39:22;98285.22;;;18.86;58.93
61109;BME280;46995;55.740;37.402;2023-07-20T15:41:49;98318.47;;;18.97;59.07
61109;BME280;46995;55.740;37.402;2023-07-20T15:44:14;98309.25;;;18.93;58.47
61109;BME280;46995;55.740;37.402;2023-07-20T15:49:07;98305.19;;;18.84;58.57
61109;BME280;46995;55.740;37.402;2023-07-20T15:51:34;98305.19;;;18.84;58.88
61109;BME280;46995;55.740;37.402;2023-07-20T15:54:02;98300.09;;;18.76;56.91
61109;BME280;46995;55.740;37.402;2023-07-20T15:56:27;98306.69;;;18.73;59.23
61109;BME280;46995;55.740;37.402;2023-07-20T15:58:53;98301.56;;;18.72;58.50
61109;BME280;46995;55.740;37.402;2023-07-20T16:01:19;98297.22;;;18.71;59.14
61109;BME280;46995;55.740;37.402;2023-07-20T16:03:44;98299.09;;;18.70;58.91
61109;BME280;46995;55.740;37.402;2023-07-20T16:06:10;98301.56;;;18.65;58.84